Time;durP1;ratioP1;P1;durP2;ratioP2;P2;SDS_P1;SDS_P2;PMS_P1;PMS_P2;Temp;Humidity;BMP_temperature;BMP_pressure;BME280_temperature;BME280_humidity;BME280_pressure;Samples;Min_cycle;Max_cycle;Signal;HPM_P1;HPM_P2
2023/03/26 00:00:13;;;;;;;5.70;2.92;;;;;;;;;;4960578;28;20054;-67
2023/03/26 00:02:41;;;;;;;5.07;3.28;;;;;;;;;;4965016;28;20137;-68
2023/03/26 00:05:15;;;;;;;3.92;2.90;;;;;;;;;;4961996;28;20054;-59
2023/03/26 00:07:42;;;;;;;4.20;2.75;;;;;;;;;;4949238;28;20061;-62
2023/03/26 00:10:09;;;;;;;;;;;;;;;;;;4960105;28;20130;-62
2023/03/26 00:12:44;;;;;;;6.25;3.13;;;;;;;;;;4961907;28;19926;-62
2023/03/26 00:15:11;;;;;;;4.22;3.20;;;;;;;;;;4963748;28;20135;-62
2023/03/26 00:17:45;;;;;;;5.60;2.92;;;;;;;;;;4967585;28;20562;-62
2023/03/26 00:20:18;;;;;;;5.18;3.30;;;;;;;;;;4971822;28;20112;-62
2023/03/26 00:22:54;;;;;;;4.53;3.03;;;;;;;;;;4941091;28;20051;-55
2023/03/26 00:25:28;;;;;;;4.53;3.15;;;;;;;;;;4980564;28;20053;-61
2023/03/26 00:28:10;;;;;;;5.68;3.08;;;;;;;;;;4988975;28;20052;-59
2023/03/26 00:30:40;;;;;;;5.97;3.58;;;;;;;;;;4986432;28;20055;-57
2023/03/26 00:33:16;;;;;;;5.93;3.50;;;;;;;;;;4982635;28;20058;-55
2023/03/26 00:35:46;;;;;;;5.90;3.30;;;;;;;;;;4986932;28;20137;-60
2023/03/26 00:38:16;;;;;;;7.95;3.20;;;;;;;;;;4988360;28;20522;-56
2023/03/26 00:40:50;;;;;;;7.63;3.75;;;;;;;;;;4986165;28;20627;-59
2023/03/26 00:43:18;;;;;;;4.90;3.53;;;;;;;;;;4990293;28;20135;-49
2023/03/26 00:45:55;;;;;;;6.72;2.90;;;;;;;;;;4989782;28;20128;-62
2023/03/26 00:48:23;;;;;;;6.00;3.05;;;;;;;;;;4987699;28;20101;-62
2023/03/26 00:51:11;;;;;;;6.03;3.70;;;;;;;;;;4987423;28;20058;-63
2023/03/26 00:53:40;;;;;;;;;;;;;;;;;;4991470;28;20089;-62
2023/03/26 00:56:14;;;;;;;5.10;2.80;;;;;;;;;;4990783;28;20304;-62
2023/03/26 00:58:41;;;;;;;;;;;;;;;;;;4993140;28;20073;-62
2023/03/26 01:01:13;;;;;;;4.75;3.20;;;;;;;;;;4988225;28;19969;-62
2023/03/26 01:03:49;;;;;;;7.68;3.10;;;;;;;;;;4994525;28;20170;-54
2023/03/26 01:06:34;;;;;;;6.28;3.47;;;;;;;;;;4975587;28;20054;-57
2023/03/26 01:09:15;;;;;;;4.90;3.25;;;;;;;;;;4988269;28;20050;-59
2023/03/26 01:11:43;;;;;;;5.22;3.17;;;;;;;;;;4989208;28;20069;-58
2023/03/26 01:14:22;;;;;;;5.72;3.25;;;;;;;;;;4990925;28;20046;-55
2023/03/26 01:16:51;;;;;;;5.28;3.55;;;;;;;;;;4988136;28;20476;-57
2023/03/26 01:19:28;;;;;;;4.88;3.38;;;;;;;;;;4990601;28;20109;-54
2023/03/26 01:21:55;;;;;;;8.70;3.88;;;;;;;;;;4990314;28;20171;-57
2023/03/26 01:24:23;;;;;;;7.03;3.47;;;;;;;;;;4990092;28;20054;-57
2023/03/26 01:27:23;;;;;;;4.72;3.30;;;;;;;;;;4988855;28;20058;-59
2023/03/26 01:29:55;;;;;;;7.25;3.55;;;;;;;;;;4993824;28;20057;-58
2023/03/26 01:32:47;;;;;;;7.28;3.90;;;;;;;;;;4991472;28;20054;-59
2023/03/26 01:35:26;;;;;;;7.40;3.78;;;;;;;;;;4989132;28;20050;-54
2023/03/26 01:38:00;;;;;;;;;;;;;;;;;;4987905;28;20152;-59
2023/03/26 01:40:41;;;;;;;4.95;3.60;;;;;;;;;;4991902;28;19929;-59
2023/03/26 01:43:34;;;;;;;4.93;3.07;;;;;;;;;;4988622;28;20058;-58
2023/03/26 01:46:03;;;;;;;6.18;3.60;;;;;;;;;;4986010;28;20570;-56
2023/03/26 01:48:42;;;;;;;8.00;3.95;;;;;;;;;;4986035;28;20149;-56
2023/03/26 01:51:09;;;;;;;8.90;3.95;;;;;;;;;;4991895;28;20046;-56
2023/03/26 01:53:44;;;;;;;9.52;3.78;;;;;;;;;;4993630;28;20054;-57
2023/03/26 01:56:12;;;;;;;8.95;3.97;;;;;;;;;;4989148;28;20107;-59
2023/03/26 01:58:46;;;;;;;6.80;3.58;;;;;;;;;;4990302;28;20129;-59
2023/03/26 02:01:16;;;;;;;6.47;3.90;;;;;;;;;;4985932;28;20057;-55
2023/03/26 02:03:53;;;;;;;6.45;3.85;;;;;;;;;;4984753;28;20655;-59
2023/03/26 02:06:29;;;;;;;6.78;3.08;;;;;;;;;;4988546;28;20877;-49
2023/03/26 02:09:06;;;;;;;5.55;3.20;;;;;;;;;;4990908;28;20050;-56
2023/03/26 02:11:35;;;;;;;7.82;3.83;;;;;;;;;;4989552;28;20057;-56
2023/03/26 02:14:09;;;;;;;9.13;4.10;;;;;;;;;;4989514;28;20105;-59
2023/03/26 02:16:36;;;;;;;6.18;3.90;;;;;;;;;;4989093;28;20054;-58
2023/03/26 02:19:14;;;;;;;6.78;3.20;;;;;;;;;;4989188;28;20172;-58
2023/03/26 02:21:42;;;;;;;5.75;3.70;;;;;;;;;;4987788;28;20062;-57
2023/03/26 02:24:09;;;;;;;5.28;3.35;;;;;;;;;;4989496;28;20050;-58
2023/03/26 02:26:43;;;;;;;5.95;3.40;;;;;;;;;;4993353;28;20076;-64
2023/03/26 02:29:11;;;;;;;4.63;3.20;;;;;;;;;;4988707;28;20053;-64
2023/03/26 02:31:48;;;;;;;8.10;3.47;;;;;;;;;;4986246;28;20054;-64
2023/03/26 02:34:16;;;;;;;9.63;4.22;;;;;;;;;;4988922;28;20066;-64
2023/03/26 02:36:43;;;;;;;7.45;3.88;;;;;;;;;;4989893;28;20104;-63
2023/03/26 02:39:17;;;;;;;6.13;3.25;;;;;;;;;;4987214;28;20469;-64
2023/03/26 02:41:44;;;;;;;6.57;3.75;;;;;;;;;;4989228;28;20457;-64
2023/03/26 02:44:18;;;;;;;7.90;3.50;;;;;;;;;;4986210;28;20421;-63
2023/03/26 02:46:45;;;;;;;4.15;2.88;;;;;;;;;;4987745;28;20137;-64
2023/03/26 02:49:12;;;;;;;4.65;3.10;;;;;;;;;;4987230;28;20680;-64
2023/03/26 02:51:46;;;;;;;5.07;2.90;;;;;;;;;;4986970;28;20047;-64
2023/03/26 02:54:15;;;;;;;6.70;3.47;;;;;;;;;;4990638;28;20177;-64
2023/03/26 02:56:49;;;;;;;3.78;2.83;;;;;;;;;;4990165;28;21277;-64
2023/03/26 02:59:16;;;;;;;8.55;3.47;;;;;;;;;;4991117;28;20056;-64
2023/03/26 03:01:43;;;;;;;6.25;3.25;;;;;;;;;;4988381;28;20165;-65
2023/03/26 03:04:18;;;;;;;5.25;3.58;;;;;;;;;;4986470;28;20521;-64
2023/03/26 03:06:45;;;;;;;;;;;;;;;;;;4986406;28;20046;-64
2023/03/26 03:09:19;;;;;;;6.97;3.17;;;;;;;;;;4983745;28;19932;-65
2023/03/26 03:11:46;;;;;;;8.05;2.90;;;;;;;;;;4986936;28;20056;-64
2023/03/26 03:14:13;;;;;;;6.85;3.10;;;;;;;;;;4984493;28;20058;-64
2023/03/26 03:16:47;;;;;;;3.95;2.58;;;;;;;;;;4986618;28;20056;-65
2023/03/26 03:19:14;;;;;;;5.10;2.75;;;;;;;;;;4988079;28;20054;-64
2023/03/26 03:21:48;;;;;;;4.22;2.40;;;;;;;;;;4984382;28;20076;-64
2023/03/26 03:24:28;;;;;;;4.70;2.50;;;;;;;;;;4988906;28;20068;-64
2023/03/26 03:27:02;;;;;;;5.85;2.28;;;;;;;;;;4991787;28;20050;-64
2023/03/26 03:29:29;;;;;;;4.38;2.13;;;;;;;;;;4986225;28;20054;-64
2023/03/26 03:31:58;;;;;;;5.97;2.50;;;;;;;;;;4982641;28;20046;-64
2023/03/26 03:34:32;;;;;;;4.07;2.55;;;;;;;;;;4988441;28;20134;-64
2023/03/26 03:36:59;;;;;;;7.72;3.15;;;;;;;;;;4986629;28;20050;-64
2023/03/26 03:39:33;;;;;;;3.45;2.38;;;;;;;;;;4987184;28;20054;-64
2023/03/26 03:42:00;;;;;;;3.75;2.30;;;;;;;;;;4991421;28;20054;-64
2023/03/26 03:44:27;;;;;;;4.20;2.67;;;;;;;;;;4988679;28;20506;-64
2023/03/26 03:47:01;;;;;;;4.43;2.40;;;;;;;;;;4984035;28;20081;-64
2023/03/26 03:49:28;;;;;;;3.25;2.33;;;;;;;;;;4985435;28;20077;-65
2023/03/26 03:52:02;;;;;;;5.60;2.30;;;;;;;;;;4984375;28;20137;-64
2023/03/26 03:54:29;;;;;;;3.25;2.05;;;;;;;;;;4985799;28;20057;-65
2023/03/26 03:56:56;;;;;;;2.83;2.08;;;;;;;;;;4983187;28;20506;-65
2023/03/26 03:59:30;;;;;;;4.40;2.40;;;;;;;;;;4988686;28;21340;-64
2023/03/26 04:01:57;;;;;;;3.88;2.20;;;;;;;;;;4986163;28;20569;-64
2023/03/26 04:04:31;;;;;;;3.28;2.33;;;;;;;;;;4987622;28;20465;-65
2023/03/26 04:06:59;;;;;;;4.50;1.90;;;;;;;;;;4983868;28;20146;-65
2023/03/26 04:09:26;;;;;;;4.78;2.35;;;;;;;;;;4986543;28;20617;-65
2023/03/26 04:12:00;;;;;;;3.28;2.10;;;;;;;;;;4989623;28;20626;-65
2023/03/26 04:14:27;;;;;;;2.80;2.20;;;;;;;;;;4987796;28;20054;-65
2023/03/26 04:17:01;;;;;;;4.22;2.22;;;;;;;;;;4987698;28;20055;-65
2023/03/26 04:19:28;;;;;;;5.38;2.22;;;;;;;;;;4990734;28;20055;-65
2023/03/26 04:22:01;;;;;;;2.75;2.03;;;;;;;;;;4991111;28;20057;-64
2023/03/26 04:24:49;;;;;;;4.18;2.10;;;;;;;;;;4988959;28;20069;-65
2023/03/26 04:27:26;;;;;;;4.45;2.20;;;;;;;;;;4990286;28;20085;-65
2023/03/26 04:30:01;;;;;;;6.53;2.22;;;;;;;;;;4993400;28;20498;-65
2023/03/26 04:32:32;;;;;;;3.55;2.05;;;;;;;;;;4986331;28;20054;-65
2023/03/26 04:35:02;;;;;;;4.05;2.10;;;;;;;;;;4989405;28;20080;-65
2023/03/26 04:37:40;;;;;;;3.03;1.95;;;;;;;;;;4984361;28;20050;-65
2023/03/26 04:40:09;;;;;;;2.78;1.92;;;;;;;;;;4990446;28;20060;-65
2023/03/26 04:42:44;;;;;;;3.38;1.80;;;;;;;;;;4986802;28;20054;-65
2023/03/26 04:45:16;;;;;;;2.65;2.13;;;;;;;;;;4992618;28;20053;-65
2023/03/26 04:47:50;;;;;;;2.92;2.00;;;;;;;;;;4992800;28;20057;-65
2023/03/26 04:50:17;;;;;;;2.75;2.20;;;;;;;;;;4989930;28;20054;-65
2023/03/26 04:52:44;;;;;;;2.85;2.10;;;;;;;;;;4989769;28;21011;-65
2023/03/26 04:55:24;;;;;;;2.63;1.83;;;;;;;;;;4992815;28;20617;-65
2023/03/26 04:57:55;;;;;;;3.70;1.77;;;;;;;;;;4988755;28;20069;-65
2023/03/26 05:00:29;;;;;;;3.65;2.28;;;;;;;;;;4990920;28;20979;-65
2023/03/26 05:02:58;;;;;;;3.80;2.22;;;;;;;;;;4988175;28;20046;-65
2023/03/26 05:05:32;;;;;;;3.35;2.10;;;;;;;;;;4992162;28;20050;-65
2023/03/26 05:07:59;;;;;;;2.72;1.98;;;;;;;;;;4989055;28;20050;-66
2023/03/26 05:10:33;;;;;;;3.78;1.92;;;;;;;;;;4990221;28;20836;-65
2023/03/26 05:13:07;;;;;;;3.63;2.10;;;;;;;;;;4989315;28;20049;-65
2023/03/26 05:15:41;;;;;;;5.60;2.20;;;;;;;;;;4991534;28;20061;-65
2023/03/26 05:18:08;;;;;;;5.88;2.30;;;;;;;;;;4992359;28;20072;-64
2023/03/26 05:20:37;;;;;;;;;;;;;;;;;;4987091;28;20061;-64
2023/03/26 05:23:11;;;;;;;4.40;2.10;;;;;;;;;;4987447;28;19929;-64
2023/03/26 05:25:45;;;;;;;3.25;2.03;;;;;;;;;;4991139;28;20517;-64
2023/03/26 05:28:23;;;;;;;5.50;2.20;;;;;;;;;;4989287;28;20109;-64
2023/03/26 05:30:53;;;;;;;6.55;2.30;;;;;;;;;;4989747;28;20120;-64
2023/03/26 05:33:27;;;;;;;2.63;2.20;;;;;;;;;;4993335;28;20145;-64
2023/03/26 05:35:59;;;;;;;5.07;1.92;;;;;;;;;;4972136;28;20411;-64
2023/03/26 05:38:34;;;;;;;3.85;2.13;;;;;;;;;;4984753;28;20061;-64
2023/03/26 05:41:10;;;;;;;3.75;2.42;;;;;;;;;;4989185;28;20145;-64
2023/03/26 05:43:46;;;;;;;3.95;2.30;;;;;;;;;;4988884;28;20073;-64
2023/03/26 05:46:13;;;;;;;5.70;2.20;;;;;;;;;;4987064;28;20552;-64
2023/03/26 05:48:41;;;;;;;4.22;2.33;;;;;;;;;;4989330;28;20046;-64
2023/03/26 05:51:15;;;;;;;3.63;2.38;;;;;;;;;;4992099;28;20061;-64
2023/03/26 05:53:43;;;;;;;7.63;2.30;;;;;;;;;;4986179;28;20064;-64
2023/03/26 05:56:10;;;;;;;;;;;;;;;;;;4988638;28;20081;-64
2023/03/26 05:58:44;;;;;;;5.15;2.05;;;;;;;;;;4988903;28;20408;-64
2023/03/26 06:01:15;;;;;;;;;;;;;;;;;;4989887;28;20162;-64
2023/03/26 06:03:43;;;;;;;4.22;2.20;;;;;;;;;;4988427;28;19965;-64
2023/03/26 06:06:19;;;;;;;5.00;2.75;;;;;;;;;;4974540;28;20060;-64
2023/03/26 06:08:53;;;;;;;5.35;2.22;;;;;;;;;;4986724;28;20112;-64
2023/03/26 06:11:29;;;;;;;5.32;2.60;;;;;;;;;;4988007;28;20139;-64
2023/03/26 06:14:04;;;;;;;3.25;2.40;;;;;;;;;;4988392;28;20061;-64
2023/03/26 06:16:38;;;;;;;4.47;2.40;;;;;;;;;;4986214;28;20051;-64
2023/03/26 06:19:12;;;;;;;3.85;2.55;;;;;;;;;;4988092;28;20054;-64
2023/03/26 06:21:39;;;;;;;5.20;2.53;;;;;;;;;;4987564;28;20082;-64
2023/03/26 06:24:06;;;;;;;;;;;;;;;;;;4991738;28;20617;-64
2023/03/26 06:26:47;;;;;;;3.90;2.08;;;;;;;;;;4982535;28;20329;-64
2023/03/26 06:29:14;;;;;;;4.57;2.22;;;;;;;;;;4979731;28;20062;-54
2023/03/26 06:31:48;;;;;;;5.45;2.40;;;;;;;;;;4990791;28;20065;-53
2023/03/26 06:34:15;;;;;;;6.18;2.38;;;;;;;;;;4989520;28;20518;-53
2023/03/26 06:36:42;;;;;;;4.15;2.50;;;;;;;;;;4998152;28;20141;-54
2023/03/26 06:39:16;;;;;;;3.25;2.10;;;;;;;;;;4983041;28;20149;-54
2023/03/26 06:41:43;;;;;;;3.95;2.13;;;;;;;;;;4986824;28;20134;-51
2023/03/26 06:44:17;;;;;;;5.22;2.42;;;;;;;;;;4990441;28;20141;-63
2023/03/26 06:46:44;;;;;;;3.63;2.28;;;;;;;;;;4984489;28;20053;-63
2023/03/26 06:49:11;;;;;;;10.55;2.70;;;;;;;;;;4972136;28;22776;-64
2023/03/26 06:51:46;;;;;;;4.75;2.20;;;;;;;;;;4972155;28;20064;-63
2023/03/26 06:54:13;;;;;;;3.60;2.40;;;;;;;;;;4977259;28;20429;-63
2023/03/26 06:56:40;;;;;;;;;;;;;;;;;;4972339;28;20637;-63
2023/03/26 06:59:14;;;;;;;3.03;2.35;;;;;;;;;;4975987;28;19965;-62
2023/03/26 07:01:41;;;;;;;2.92;2.20;;;;;;;;;;4978685;28;20064;-63
2023/03/26 07:04:15;;;;;;;4.88;2.60;;;;;;;;;;4962948;28;21069;-63
2023/03/26 07:06:42;;;;;;;4.13;2.55;;;;;;;;;;4980885;28;20054;-57
2023/03/26 07:09:09;;;;;;;8.00;2.63;;;;;;;;;;4986384;28;20050;-56
2023/03/26 07:11:43;;;;;;;3.60;2.53;;;;;;;;;;4986086;28;20097;-54
2023/03/26 07:14:10;;;;;;;3.72;2.65;;;;;;;;;;4989311;28;20047;-55
2023/03/26 07:16:44;;;;;;;5.57;2.75;;;;;;;;;;4984012;28;20069;-56
2023/03/26 07:19:11;;;;;;;7.68;2.60;;;;;;;;;;4979505;28;20064;-52
2023/03/26 07:21:45;;;;;;;3.70;2.30;;;;;;;;;;4986211;28;20056;-53
2023/03/26 07:24:20;;;;;;;5.05;2.83;;;;;;;;;;4984738;28;20061;-59
2023/03/26 07:27:03;;;;;;;4.93;2.67;;;;;;;;;;4984536;28;20053;-60
2023/03/26 07:29:51;;;;;;;5.18;2.30;;;;;;;;;;4986633;28;20062;-60
2023/03/26 07:32:28;;;;;;;4.30;2.47;;;;;;;;;;4984592;28;20062;-60
2023/03/26 07:35:11;;;;;;;4.93;2.72;;;;;;;;;;4982839;28;20054;-58
2023/03/26 07:37:43;;;;;;;4.72;2.88;;;;;;;;;;4983659;28;20543;-60
2023/03/26 07:40:27;;;;;;;7.65;2.35;;;;;;;;;;4987887;28;20058;-51
2023/03/26 07:43:06;;;;;;;3.70;2.47;;;;;;;;;;4985292;28;20050;-63
2023/03/26 07:45:41;;;;;;;5.22;2.60;;;;;;;;;;4985186;28;20058;-63
2023/03/26 07:48:17;;;;;;;5.70;2.95;;;;;;;;;;4987736;28;20053;-62
2023/03/26 07:50:44;;;;;;;7.00;2.30;;;;;;;;;;4980905;28;20137;-63
2023/03/26 07:53:18;;;;;;;5.43;2.55;;;;;;;;;;4981323;28;21345;-62
2023/03/26 07:55:52;;;;;;;6.93;2.50;;;;;;;;;;4985589;28;20069;-63
2023/03/26 07:58:29;;;;;;;5.10;2.53;;;;;;;;;;4986053;28;20057;-57
2023/03/26 08:01:03;;;;;;;5.93;2.78;;;;;;;;;;4986205;28;20050;-67
2023/03/26 08:04:03;;;;;;;4.57;2.60;;;;;;;;;;4984331;28;20054;-66
2023/03/26 08:06:57;;;;;;;6.40;2.40;;;;;;;;;;4981255;28;20050;-67
2023/03/26 08:09:37;;;;;;;5.13;2.60;;;;;;;;;;4986954;28;20049;-67
2023/03/26 08:12:23;;;;;;;6.95;2.15;;;;;;;;;;4982777;28;20054;-67
2023/03/26 08:15:09;;;;;;;3.50;2.10;;;;;;;;;;4982529;28;20054;-66
2023/03/26 08:17:44;;;;;;;4.95;2.40;;;;;;;;;;4984961;28;20178;-59
2023/03/26 08:20:37;;;;;;;4.38;2.20;;;;;;;;;;4985823;28;20770;-61
2023/03/26 08:23:13;;;;;;;4.30;2.30;;;;;;;;;;4986534;28;20085;-61
2023/03/26 08:26:01;;;;;;;4.57;2.10;;;;;;;;;;4986543;28;20434;-61
2023/03/26 08:28:37;;;;;;;3.22;2.03;;;;;;;;;;4980510;28;20054;-62
2023/03/26 08:31:14;;;;;;;5.47;2.17;;;;;;;;;;4983342;28;20061;-61
2023/03/26 08:33:42;;;;;;;4.40;2.10;;;;;;;;;;4990141;28;20058;-61
2023/03/26 08:36:09;;;;;;;5.45;2.08;;;;;;;;;;4985691;28;20072;-63
2023/03/26 08:38:43;;;;;;;6.05;2.00;;;;;;;;;;4980919;28;20058;-56
2023/03/26 08:41:17;;;;;;;6.72;2.10;;;;;;;;;;4985266;28;20085;-57
2023/03/26 08:43:57;;;;;;;4.13;2.65;;;;;;;;;;4983267;28;20054;-55
2023/03/26 08:46:24;;;;;;;5.03;1.80;;;;;;;;;;4987088;28;20050;-54
2023/03/26 08:49:09;;;;;;;4.45;1.65;;;;;;;;;;4988253;28;20104;-56
2023/03/26 08:51:55;;;;;;;6.00;2.05;;;;;;;;;;4991443;28;20153;-54
2023/03/26 08:54:33;;;;;;;3.42;1.70;;;;;;;;;;4974929;28;20054;-62
2023/03/26 08:57:00;;;;;;;4.05;1.90;;;;;;;;;;4974942;28;20177;-61
2023/03/26 08:59:39;;;;;;;3.92;1.90;;;;;;;;;;4975283;28;20058;-61
2023/03/26 09:02:16;;;;;;;3.78;1.73;;;;;;;;;;4977278;28;20518;-61
2023/03/26 09:05:02;;;;;;;2.92;1.70;;;;;;;;;;4980859;28;20082;-61
2023/03/26 09:07:42;;;;;;;3.67;1.90;;;;;;;;;;4986040;28;20145;-60
2023/03/26 09:10:21;;;;;;;1.95;1.50;;;;;;;;;;4992775;28;20137;-61
2023/03/26 09:12:58;;;;;;;3.55;1.90;;;;;;;;;;4990303;28;20060;-47
2023/03/26 09:15:28;;;;;;;5.80;1.67;;;;;;;;;;4988599;28;20058;-61
2023/03/26 09:18:14;;;;;;;4.28;1.60;;;;;;;;;;4985811;28;20058;-61
2023/03/26 09:20:41;;;;;;;3.25;1.90;;;;;;;;;;4986473;28;20419;-61
2023/03/26 09:23:16;;;;;;;2.03;1.50;;;;;;;;;;4984529;28;20650;-61
2023/03/26 09:26:09;;;;;;;2.30;1.50;;;;;;;;;;4968464;28;20058;-62
2023/03/26 09:28:43;;;;;;;3.92;1.80;;;;;;;;;;4964934;28;20051;-61
2023/03/26 09:31:29;;;;;;;2.08;1.35;;;;;;;;;;4967549;28;20139;-49
2023/03/26 09:34:06;;;;;;;2.50;1.40;;;;;;;;;;4960590;28;20153;-53
2023/03/26 09:36:52;;;;;;;2.58;1.58;;;;;;;;;;4956290;28;20776;-54
2023/03/26 09:39:55;;;;;;;1.45;1.15;;;;;;;;;;4964210;28;20059;-55
2023/03/26 09:42:48;;;;;;;2.05;1.30;;;;;;;;;;4952158;28;20058;-54
2023/03/26 09:45:22;;;;;;;5.10;1.95;;;;;;;;;;4950454;28;20470;-52
2023/03/26 09:48:28;;;;;;;3.55;1.25;;;;;;;;;;4962920;28;20097;-61
2023/03/26 09:51:17;;;;;;;2.20;1.33;;;;;;;;;;4884925;29;20175;-56
2023/03/26 09:54:09;;;;;;;3.78;1.50;;;;;;;;;;4888223;29;20055;-55
2023/03/26 09:56:52;;;;;;;2.08;1.30;;;;;;;;;;4949639;28;20707;-55
2023/03/26 09:59:48;;;;;;;6.07;1.67;;;;;;;;;;4963140;28;20081;-57
2023/03/26 10:02:41;;;;;;;2.60;1.40;;;;;;;;;;4959505;28;20050;-58
2023/03/26 10:05:33;;;;;;;3.63;1.35;;;;;;;;;;4967390;28;20058;-52
2023/03/26 10:08:07;;;;;;;4.43;1.20;;;;;;;;;;4967303;28;20057;-62
2023/03/26 10:10:40;;;;;;;1.95;1.27;;;;;;;;;;4968075;28;20097;-58
2023/03/26 10:13:34;;;;;;;2.92;1.45;;;;;;;;;;4965246;28;20089;-56
2023/03/26 10:16:07;;;;;;;9.43;1.60;;;;;;;;;;4954071;28;20154;-54
2023/03/26 10:18:45;;;;;;;3.03;1.52;;;;;;;;;;4959419;28;20583;-57
2023/03/26 10:21:39;;;;;;;2.75;1.45;;;;;;;;;;4958453;28;20062;-54
2023/03/26 10:24:23;;;;;;;4.50;1.70;;;;;;;;;;4959284;28;20564;-54
2023/03/26 10:27:08;;;;;;;2.65;1.13;;;;;;;;;;4980048;28;21476;-56
2023/03/26 10:29:59;;;;;;;3.58;1.55;;;;;;;;;;4980100;28;20058;-57
2023/03/26 10:32:42;;;;;;;2.22;1.60;;;;;;;;;;4973450;28;20075;-56
2023/03/26 10:35:34;;;;;;;1.48;1.30;;;;;;;;;;4980216;28;20050;-56
2023/03/26 10:38:05;;;;;;;3.03;1.50;;;;;;;;;;4983003;28;20073;-57
2023/03/26 10:40:45;;;;;;;4.80;1.33;;;;;;;;;;4979404;28;20493;-52
2023/03/26 10:43:12;;;;;;;3.20;1.30;;;;;;;;;;4971669;28;20054;-56
2023/03/26 10:46:04;;;;;;;3.83;1.45;;;;;;;;;;4980536;28;20077;-69
2023/03/26 10:48:59;;;;;;;5.40;2.13;;;;;;;;;;4980449;28;20585;-56
2023/03/26 10:51:30;;;;;;;3.42;1.63;;;;;;;;;;4975893;28;20149;-56
2023/03/26 10:54:40;;;;;;;2.55;1.58;;;;;;;;;;4974616;28;20671;-58
2023/03/26 10:57:19;;;;;;;3.25;1.88;;;;;;;;;;4920436;29;20051;-56
2023/03/26 11:00:32;;;;;;;4.95;2.03;;;;;;;;;;4969581;28;20058;-57
2023/03/26 11:03:08;;;;;;;3.85;2.00;;;;;;;;;;4968911;28;20084;-55
2023/03/26 11:05:58;;;;;;;2.47;1.52;;;;;;;;;;4974484;28;20058;-67
2023/03/26 11:08:44;;;;;;;3.00;1.50;;;;;;;;;;4965804;28;22347;-68
2023/03/26 11:11:30;;;;;;;5.03;1.70;;;;;;;;;;4964771;28;20074;-68
2023/03/26 11:14:10;;;;;;;2.38;1.70;;;;;;;;;;4972467;28;20060;-67
2023/03/26 11:16:56;;;;;;;3.05;1.42;;;;;;;;;;4972741;28;20069;-68
2023/03/26 11:19:36;;;;;;;2.15;1.27;;;;;;;;;;4975196;28;20077;-52
2023/03/26 11:22:15;;;;;;;3.10;1.95;;;;;;;;;;4981206;28;20137;-53
2023/03/26 11:25:21;;;;;;;2.55;1.80;;;;;;;;;;4971835;28;20536;-58
2023/03/26 11:27:55;;;;;;;5.75;2.38;;;;;;;;;;4985268;28;20137;-53
2023/03/26 11:30:36;;;;;;;13.13;5.72;;;;;;;;;;4984469;28;20057;-61
2023/03/26 11:33:08;;;;;;;19.10;7.30;;;;;;;;;;4987477;28;20137;-61
2023/03/26 11:35:45;;;;;;;12.20;5.65;;;;;;;;;;4982268;28;20085;-61
2023/03/26 11:38:18;;;;;;;7.97;3.50;;;;;;;;;;4984309;28;20054;-61
2023/03/26 11:40:54;;;;;;;3.20;1.88;;;;;;;;;;4987283;28;20054;-61
2023/03/26 11:43:25;;;;;;;2.30;1.65;;;;;;;;;;4985089;28;20062;-61
2023/03/26 11:45:59;;;;;;;2.90;1.95;;;;;;;;;;4986938;28;20053;-61
2023/03/26 11:48:38;;;;;;;2.50;2.20;;;;;;;;;;4985461;28;20058;-54
2023/03/26 11:51:07;;;;;;;1.40;1.30;;;;;;;;;;4984584;28;20417;-50
2023/03/26 11:53:45;;;;;;;2.88;1.38;;;;;;;;;;4987994;28;20064;-49
2023/03/26 11:56:22;;;;;;;2.40;1.52;;;;;;;;;;4986805;28;20640;-54
2023/03/26 11:58:56;;;;;;;3.35;1.58;;;;;;;;;;4967292;28;20054;-56
2023/03/26 12:01:29;;;;;;;2.40;1.70;;;;;;;;;;4989599;28;20050;-61
2023/03/26 12:04:05;;;;;;;3.65;2.13;;;;;;;;;;4984312;28;20076;-61
2023/03/26 12:06:33;;;;;;;3.20;1.30;;;;;;;;;;4981085;28;20054;-61
2023/03/26 12:09:25;;;;;;;3.00;1.67;;;;;;;;;;4987419;28;20154;-61
2023/03/26 12:11:55;;;;;;;4.15;2.20;;;;;;;;;;4986937;28;20054;-61
2023/03/26 12:14:30;;;;;;;1.90;1.40;;;;;;;;;;4981545;28;20137;-61
2023/03/26 12:17:02;;;;;;;3.00;1.63;;;;;;;;;;4983651;28;20050;-55
2023/03/26 12:19:38;;;;;;;4.95;1.90;;;;;;;;;;4984249;28;20057;-56
2023/03/26 12:22:06;;;;;;;3.90;1.70;;;;;;;;;;4982361;28;20046;-54
2023/03/26 12:24:35;;;;;;;2.72;1.55;;;;;;;;;;4982554;28;20084;-59
2023/03/26 12:27:21;;;;;;;4.75;2.65;;;;;;;;;;4984323;28;20505;-60
2023/03/26 12:29:53;;;;;;;4.00;2.53;;;;;;;;;;4980542;28;20061;-61
2023/03/26 12:32:34;;;;;;;4.78;2.67;;;;;;;;;;4987041;28;20395;-61
2023/03/26 12:35:24;;;;;;;3.58;2.50;;;;;;;;;;4985086;28;20062;-61
2023/03/26 12:38:18;;;;;;;7.05;2.42;;;;;;;;;;4990616;28;20051;-62
2023/03/26 12:40:46;;;;;;;3.22;1.73;;;;;;;;;;4990328;28;20465;-61
2023/03/26 12:43:31;;;;;;;2.42;1.73;;;;;;;;;;4983843;28;20144;-61
2023/03/26 12:46:24;;;;;;;2.78;1.50;;;;;;;;;;4989008;28;20057;-61
2023/03/26 12:49:18;;;;;;;1.88;1.33;;;;;;;;;;4986934;28;20046;-58
2023/03/26 12:51:48;;;;;;;3.80;1.45;;;;;;;;;;4987362;28;20077;-57
2023/03/26 12:54:47;;;;;;;4.28;1.65;;;;;;;;;;4990283;28;20058;-56
2023/03/26 12:57:19;;;;;;;4.50;1.77;;;;;;;;;;4985727;28;20050;-56
2023/03/26 13:00:11;;;;;;;3.90;1.50;;;;;;;;;;4986593;28;20058;-55
2023/03/26 13:02:57;;;;;;;3.60;1.88;;;;;;;;;;4983212;28;20086;-55
2023/03/26 13:05:54;;;;;;;3.20;1.65;;;;;;;;;;4979656;28;20057;-51
2023/03/26 13:08:27;;;;;;;2.72;1.50;;;;;;;;;;4977347;28;20193;-52
2023/03/26 13:11:16;;;;;;;2.55;2.08;;;;;;;;;;4983519;28;20524;-53
2023/03/26 13:13:43;;;;;;;2.88;1.75;;;;;;;;;;4978407;28;20046;-57
2023/03/26 13:16:36;;;;;;;2.20;1.75;;;;;;;;;;4978774;28;20058;-55
2023/03/26 13:19:06;;;;;;;3.88;1.90;;;;;;;;;;4979325;28;20237;-54
2023/03/26 13:21:49;;;;;;;2.55;1.42;;;;;;;;;;4984165;28;20080;-48
2023/03/26 13:24:54;;;;;;;2.00;1.50;;;;;;;;;;4972642;28;20073;-48
2023/03/26 13:27:28;;;;;;;1.75;1.40;;;;;;;;;;4980639;28;20054;-60
2023/03/26 13:30:20;;;;;;;4.45;1.67;;;;;;;;;;4981941;28;20202;-60
2023/03/26 13:33:10;;;;;;;3.75;1.65;;;;;;;;;;4978153;28;20134;-60
2023/03/26 13:35:49;;;;;;;1.95;1.70;;;;;;;;;;4982263;28;20142;-61
2023/03/26 13:38:17;;;;;;;2.78;1.55;;;;;;;;;;4969682;28;20156;-60
2023/03/26 13:41:06;;;;;;;2.03;1.60;;;;;;;;;;4977508;28;20050;-60
2023/03/26 13:43:42;;;;;;;4.75;2.17;;;;;;;;;;4977535;28;20196;-50
2023/03/26 13:46:28;;;;;;;3.50;1.95;;;;;;;;;;4976742;28;20047;-53
2023/03/26 13:48:55;;;;;;;6.25;2.05;;;;;;;;;;4987178;28;20054;-49
2023/03/26 13:51:41;;;;;;;2.05;1.67;;;;;;;;;;4989589;28;20077;-47
2023/03/26 13:54:16;;;;;;;5.03;1.75;;;;;;;;;;4991568;28;20075;-52
2023/03/26 13:56:54;;;;;;;4.45;1.67;;;;;;;;;;4982425;28;20133;-47
2023/03/26 13:59:26;;;;;;;4.38;2.05;;;;;;;;;;4978850;28;20059;-56
2023/03/26 14:02:02;;;;;;;2.67;1.80;;;;;;;;;;4982439;28;20588;-55
2023/03/26 14:04:37;;;;;;;2.72;1.50;;;;;;;;;;4968919;28;20509;-58
2023/03/26 14:07:31;;;;;;;4.03;1.60;;;;;;;;;;4985045;28;20065;-56
2023/03/26 14:10:01;;;;;;;3.42;1.70;;;;;;;;;;4977508;28;20462;-55
2023/03/26 14:12:53;;;;;;;8.88;1.80;;;;;;;;;;4985631;28;20065;-57
2023/03/26 14:15:40;;;;;;;3.88;1.60;;;;;;;;;;4985274;28;20136;-58
2023/03/26 14:18:28;;;;;;;3.13;1.67;;;;;;;;;;4984739;28;20116;-58
2023/03/26 14:21:04;;;;;;;4.85;2.05;;;;;;;;;;4980920;28;20141;-60
2023/03/26 14:23:50;;;;;;;2.22;1.63;;;;;;;;;;4984438;28;20191;-60
2023/03/26 14:26:41;;;;;;;2.35;1.58;;;;;;;;;;4985424;28;20287;-60
2023/03/26 14:29:22;;;;;;;2.35;1.40;;;;;;;;;;4986149;28;20051;-60
2023/03/26 14:31:55;;;;;;;2.88;1.70;;;;;;;;;;4990253;28;20545;-62
2023/03/26 14:34:48;;;;;;;2.30;1.15;;;;;;;;;;4986863;28;20506;-61
2023/03/26 14:37:33;;;;;;;2.88;1.50;;;;;;;;;;4990812;28;20417;-54
2023/03/26 14:40:27;;;;;;;1.90;1.50;;;;;;;;;;4984060;28;20060;-47
2023/03/26 14:43:13;;;;;;;2.95;1.50;;;;;;;;;;4986098;28;20482;-50
2023/03/26 14:46:06;;;;;;;2.05;1.50;;;;;;;;;;4984349;28;20818;-47
2023/03/26 14:48:52;;;;;;;2.60;1.70;;;;;;;;;;4987570;28;20069;-52
2023/03/26 14:51:45;;;;;;;2.33;1.50;;;;;;;;;;4987203;28;20046;-46
2023/03/26 14:54:32;;;;;;;2.30;1.23;;;;;;;;;;4984611;28;20421;-61
2023/03/26 14:57:06;;;;;;;1.83;1.33;;;;;;;;;;4984040;28;20050;-55
2023/03/26 14:59:34;;;;;;;2.30;1.60;;;;;;;;;;4987777;28;20067;-56
2023/03/26 15:02:23;;;;;;;2.03;1.25;;;;;;;;;;4986418;28;20060;-50
2023/03/26 15:04:50;;;;;;;5.40;2.58;;;;;;;;;;4987081;28;20050;-55
2023/03/26 15:07:40;;;;;;;9.32;5.00;;;;;;;;;;4987799;28;20064;-56
2023/03/26 15:10:21;;;;;;;6.15;3.67;;;;;;;;;;4985581;28;20050;-50
2023/03/26 15:13:02;;;;;;;5.13;2.30;;;;;;;;;;4981833;28;20058;-58
2023/03/26 15:15:30;;;;;;;2.83;1.27;;;;;;;;;;4984218;28;20058;-62
2023/03/26 15:18:21;;;;;;;1.60;1.00;;;;;;;;;;4983098;28;20054;-61
2023/03/26 15:20:49;;;;;;;1.48;1.27;;;;;;;;;;4983644;28;20054;-60
2023/03/26 15:23:41;;;;;;;2.88;1.55;;;;;;;;;;4970585;28;20046;-61
2023/03/26 15:26:29;;;;;;;1.38;1.13;;;;;;;;;;4978161;28;20155;-61
2023/03/26 15:29:10;;;;;;;4.10;1.50;;;;;;;;;;4983894;28;20082;-61
2023/03/26 15:32:00;;;;;;;1.65;1.02;;;;;;;;;;4981698;28;20301;-68
2023/03/26 15:34:43;;;;;;;4.07;1.33;;;;;;;;;;4981821;28;20054;-53
2023/03/26 15:37:17;;;;;;;2.15;1.35;;;;;;;;;;4986502;28;20077;-57
2023/03/26 15:40:10;;;;;;;1.90;1.33;;;;;;;;;;4985011;28;20064;-54
2023/03/26 15:42:56;;;;;;;2.15;1.08;;;;;;;;;;4978100;28;20054;-54